Young, Australia
Current Conditions -  °F | °C
As of 1:00 AM on Saturday 20 Dec 2014 (Local Time) from YSWG Reporting Station
Clear Clear  
Wind Chill: 59°   Ceiling: Unl
Heat Index: 59°   Visibility: 6mi
Dew Point: 39°   Wind: 3mph
Humidity: 48%   Direction: 70°ENE
Pressure: 30"   Gusts: NA
Location:  34.31°S, 148.3°E
Report Text: YSWG 191400Z AUTO 07003KT 9999 // NCD 15/04 Q1016
Loading
Personal Weather Stations






























Interactive Weather Map New forecast layout! Learn more

10-Day Weather Forecast

Advertisements
Track Severe Weather on mobile